sensor_id;sensor_type;location;lat;lon;timestamp;pressure;altitude;pressure_sealevel;temperature;humidity
3444;BME280;1736;52.068;6.968;2023-05-16T00:00:44;101171.84;;;9.82;97.53
3444;BME280;1736;52.068;6.968;2023-05-16T00:03:10;101162.34;;;9.67;95.84
3444;BME280;1736;52.068;6.968;2023-05-16T00:05:38;101178.63;;;9.50;94.66
3444;BME280;1736;52.068;6.968;2023-05-16T00:08:04;101168.34;;;9.58;95.08
3444;BME280;1736;52.068;6.968;2023-05-16T00:10:31;101174.34;;;9.60;94.39
3444;BME280;1736;52.068;6.968;2023-05-16T00:12:57;101178.66;;;9.74;93.35
3444;BME280;1736;52.068;6.968;2023-05-16T00:15:26;101185.53;;;9.76;92.34
3444;BME280;1736;52.068;6.968;2023-05-16T00:17:53;101186.28;;;9.78;91.54
3444;BME280;1736;52.068;6.968;2023-05-16T00:20:22;101181.00;;;9.78;90.81
3444;BME280;1736;52.068;6.968;2023-05-16T00:22:50;101192.13;;;9.71;91.56
3444;BME280;1736;52.068;6.968;2023-05-16T00:25:16;101195.25;;;9.52;93.88
3444;BME280;1736;52.068;6.968;2023-05-16T00:27:43;101196.41;;;9.48;95.51
3444;BME280;1736;52.068;6.968;2023-05-16T00:30:10;101202.97;;;9.55;95.53
3444;BME280;1736;52.068;6.968;2023-05-16T00:32:43;101198.00;;;9.51;95.71
3444;BME280;1736;52.068;6.968;2023-05-16T00:35:10;101190.16;;;9.49;96.07
3444;BME280;1736;52.068;6.968;2023-05-16T00:37:36;101194.53;;;9.50;95.38
3444;BME280;1736;52.068;6.968;2023-05-16T00:40:05;101198.84;;;9.51;94.85
3444;BME280;1736;52.068;6.968;2023-05-16T00:42:32;101199.47;;;9.55;94.93
3444;BME280;1736;52.068;6.968;2023-05-16T00:44:59;101194.06;;;9.56;94.18
3444;BME280;1736;52.068;6.968;2023-05-16T00:47:25;101199.88;;;9.61;94.30
3444;BME280;1736;52.068;6.968;2023-05-16T00:49:52;101192.69;;;9.63;94.06
3444;BME280;1736;52.068;6.968;2023-05-16T00:52:19;101189.38;;;9.72;93.42
3444;BME280;1736;52.068;6.968;2023-05-16T00:54:45;101193.81;;;9.72;92.79
3444;BME280;1736;52.068;6.968;2023-05-16T00:57:14;101187.19;;;9.66;92.35
3444;BME280;1736;52.068;6.968;2023-05-16T00:59:41;101199.25;;;9.70;90.96
3444;BME280;1736;52.068;6.968;2023-05-16T01:02:08;101183.78;;;9.64;90.19
3444;BME280;1736;52.068;6.968;2023-05-16T01:04:35;101183.34;;;9.70;89.68
3444;BME280;1736;52.068;6.968;2023-05-16T01:07:01;101192.47;;;9.66;89.50
3444;BME280;1736;52.068;6.968;2023-05-16T01:09:28;101190.75;;;9.65;89.07
3444;BME280;1736;52.068;6.968;2023-05-16T01:12:01;101179.53;;;9.62;88.60
3444;BME280;1736;52.068;6.968;2023-05-16T01:14:38;101190.53;;;9.68;89.33
3444;BME280;1736;52.068;6.968;2023-05-16T01:17:13;101194.16;;;9.67;89.52
3444;BME280;1736;52.068;6.968;2023-05-16T01:19:52;101198.19;;;9.60;89.67
3444;BME280;1736;52.068;6.968;2023-05-16T01:22:28;101196.31;;;9.50;89.65
3444;BME280;1736;52.068;6.968;2023-05-16T01:25:05;101193.09;;;9.57;89.44
3444;BME280;1736;52.068;6.968;2023-05-16T01:27:37;101188.47;;;9.48;89.05
3444;BME280;1736;52.068;6.968;2023-05-16T01:30:15;101200.75;;;9.49;89.15
3444;BME280;1736;52.068;6.968;2023-05-16T01:32:42;101195.69;;;9.46;88.30
3444;BME280;1736;52.068;6.968;2023-05-16T01:35:11;101199.09;;;9.36;88.09
3444;BME280;1736;52.068;6.968;2023-05-16T01:37:42;101208.09;;;9.33;87.87
3444;BME280;1736;52.068;6.968;2023-05-16T01:40:15;101206.00;;;9.26;87.54
3444;BME280;1736;52.068;6.968;2023-05-16T01:42:46;101205.88;;;9.15;87.74
3444;BME280;1736;52.068;6.968;2023-05-16T01:45:19;101214.16;;;9.10;88.37
3444;BME280;1736;52.068;6.968;2023-05-16T01:48:07;101221.59;;;9.05;88.96
3444;BME280;1736;52.068;6.968;2023-05-16T01:50:41;101216.38;;;8.91;89.59
3444;BME280;1736;52.068;6.968;2023-05-16T01:53:14;101227.16;;;8.88;90.23
3444;BME280;1736;52.068;6.968;2023-05-16T01:55:46;101229.59;;;8.79;90.51
3444;BME280;1736;52.068;6.968;2023-05-16T01:58:15;101225.34;;;8.76;91.09
3444;BME280;1736;52.068;6.968;2023-05-16T02:00:42;101230.88;;;8.73;91.35
3444;BME280;1736;52.068;6.968;2023-05-16T02:03:09;101232.13;;;8.68;91.39
3444;BME280;1736;52.068;6.968;2023-05-16T02:05:35;101239.63;;;8.61;92.11
3444;BME280;1736;52.068;6.968;2023-05-16T02:08:02;101234.94;;;8.52;92.26
3444;BME280;1736;52.068;6.968;2023-05-16T02:10:29;101235.03;;;8.51;92.31
3444;BME280;1736;52.068;6.968;2023-05-16T02:12:55;101235.69;;;8.54;92.24
3444;BME280;1736;52.068;6.968;2023-05-16T02:15:23;101241.16;;;8.51;91.87
3444;BME280;1736;52.068;6.968;2023-05-16T02:17:50;101238.19;;;8.43;92.33
3444;BME280;1736;52.068;6.968;2023-05-16T02:20:16;101249.19;;;8.37;92.61
3444;BME280;1736;52.068;6.968;2023-05-16T02:22:43;101241.16;;;8.39;92.03
3444;BME280;1736;52.068;6.968;2023-05-16T02:25:12;101246.63;;;8.36;92.32
3444;BME280;1736;52.068;6.968;2023-05-16T02:27:39;101262.03;;;8.29;92.79
3444;BME280;1736;52.068;6.968;2023-05-16T02:30:08;101254.22;;;8.28;92.36
3444;BME280;1736;52.068;6.968;2023-05-16T02:32:36;101254.31;;;8.26;92.22
3444;BME280;1736;52.068;6.968;2023-05-16T02:35:03;101259.97;;;8.20;92.70
3444;BME280;1736;52.068;6.968;2023-05-16T02:37:30;101261.13;;;8.16;92.62
3444;BME280;1736;52.068;6.968;2023-05-16T02:39:56;101260.06;;;8.19;92.68
3444;BME280;1736;52.068;6.968;2023-05-16T02:42:24;101260.75;;;8.08;93.22
3444;BME280;1736;52.068;6.968;2023-05-16T02:44:51;101262.75;;;8.05;93.00
3444;BME280;1736;52.068;6.968;2023-05-16T02:47:18;101259.25;;;8.04;93.01
3444;BME280;1736;52.068;6.968;2023-05-16T02:49:45;101272.25;;;8.07;93.07
3444;BME280;1736;52.068;6.968;2023-05-16T02:52:12;101276.44;;;7.97;92.87
3444;BME280;1736;52.068;6.968;2023-05-16T02:54:38;101275.59;;;7.97;93.09
3444;BME280;1736;52.068;6.968;2023-05-16T02:57:05;101274.94;;;7.93;93.32
3444;BME280;1736;52.068;6.968;2023-05-16T02:59:31;101285.16;;;7.85;93.24
3444;BME280;1736;52.068;6.968;2023-05-16T03:01:58;101280.63;;;7.87;93.04
3444;BME280;1736;52.068;6.968;2023-05-16T03:04:24;101283.75;;;7.80;92.54
3444;BME280;1736;52.068;6.968;2023-05-16T03:06:52;101284.59;;;7.80;92.44
3444;BME280;1736;52.068;6.968;2023-05-16T03:09:19;101276.31;;;7.72;93.15
3444;BME280;1736;52.068;6.968;2023-05-16T03:11:46;101284.50;;;7.68;93.12
3444;BME280;1736;52.068;6.968;2023-05-16T03:14:12;101282.91;;;7.65;93.41
3444;BME280;1736;52.068;6.968;2023-05-16T03:16:39;101281.78;;;7.69;92.73
3444;BME280;1736;52.068;6.968;2023-05-16T03:19:07;101289.13;;;7.64;92.81
3444;BME280;1736;52.068;6.968;2023-05-16T03:21:33;101295.81;;;7.56;93.04
3444;BME280;1736;52.068;6.968;2023-05-16T03:24:02;101295.56;;;7.60;92.62
3444;BME280;1736;52.068;6.968;2023-05-16T03:26:29;101296.28;;;7.62;92.34
3444;BME280;1736;52.068;6.968;2023-05-16T03:28:55;101299.59;;;7.52;92.73
3444;BME280;1736;52.068;6.968;2023-05-16T03:31:22;101307.81;;;7.47;92.71
3444;BME280;1736;52.068;6.968;2023-05-16T03:33:49;101301.78;;;7.45;93.25
3444;BME280;1736;52.068;6.968;2023-05-16T03:36:15;101306.97;;;7.47;92.96
3444;BME280;1736;52.068;6.968;2023-05-16T03:38:42;101306.31;;;7.43;92.92
3444;BME280;1736;52.068;6.968;2023-05-16T03:41:10;101308.09;;;7.43;93.23
3444;BME280;1736;52.068;6.968;2023-05-16T03:43:36;101309.88;;;7.42;93.07
3444;BME280;1736;52.068;6.968;2023-05-16T03:46:03;101322.16;;;7.43;93.88
3444;BME280;1736;52.068;6.968;2023-05-16T03:48:29;101324.50;;;7.34;94.37
3444;BME280;1736;52.068;6.968;2023-05-16T03:50:56;101325.91;;;7.39;94.42
3444;BME280;1736;52.068;6.968;2023-05-16T03:53:22;101321.00;;;7.33;94.06
3444;BME280;1736;52.068;6.968;2023-05-16T03:55:49;101332.38;;;7.20;95.08
3444;BME280;1736;52.068;6.968;2023-05-16T03:58:17;101330.59;;;7.20;95.18
3444;BME280;1736;52.068;6.968;2023-05-16T04:00:43;101333.50;;;7.16;96.03
3444;BME280;1736;52.068;6.968;2023-05-16T04:03:11;101341.31;;;7.17;96.07
3444;BME280;1736;52.068;6.968;2023-05-16T04:05:37;101339.38;;;7.21;95.29
3444;BME280;1736;52.068;6.968;2023-05-16T04:08:04;101342.38;;;7.15;95.17
3444;BME280;1736;52.068;6.968;2023-05-16T04:10:30;101338.59;;;7.19;95.87
3444;BME280;1736;52.068;6.968;2023-05-16T04:12:57;101348.72;;;7.26;95.83
3444;BME280;1736;52.068;6.968;2023-05-16T04:15:25;101350.97;;;7.18;94.93
3444;BME280;1736;52.068;6.968;2023-05-16T04:17:51;101343.97;;;7.17;95.41
3444;BME280;1736;52.068;6.968;2023-05-16T04:20:18;101349.84;;;7.22;95.72
3444;BME280;1736;52.068;6.968;2023-05-16T04:22:45;101357.75;;;7.22;95.80
3444;BME280;1736;52.068;6.968;2023-05-16T04:25:12;101353.63;;;7.32;95.07
3444;BME280;1736;52.068;6.968;2023-05-16T04:27:38;101353.63;;;7.32;95.45
3444;BME280;1736;52.068;6.968;2023-05-16T04:30:06;101363.44;;;7.30;95.09
3444;BME280;1736;52.068;6.968;2023-05-16T04:32:34;101368.53;;;7.33;95.50
3444;BME280;1736;52.068;6.968;2023-05-16T04:35:01;101368.53;;;7.33;95.71
3444;BME280;1736;52.068;6.968;2023-05-16T04:37:27;101363.53;;;7.43;95.00
3444;BME280;1736;52.068;6.968;2023-05-16T04:39:54;101375.44;;;7.50;95.38
3444;BME280;1736;52.068;6.968;2023-05-16T04:42:20;101365.84;;;7.49;94.87
3444;BME280;1736;52.068;6.968;2023-05-16T04:44:47;101369.81;;;7.70;94.32
3444;BME280;1736;52.068;6.968;2023-05-16T04:47:14;101371.22;;;7.75;93.68
3444;BME280;1736;52.068;6.968;2023-05-16T04:49:42;101372.75;;;7.79;93.62
3444;BME280;1736;52.068;6.968;2023-05-16T04:52:08;101382.00;;;8.00;92.40
3444;BME280;1736;52.068;6.968;2023-05-16T04:54:37;101379.50;;;8.11;91.81
3444;BME280;1736;52.068;6.968;2023-05-16T04:57:03;101386.31;;;8.29;90.55
3444;BME280;1736;52.068;6.968;2023-05-16T04:59:30;101385.81;;;8.51;90.17
3444;BME280;1736;52.068;6.968;2023-05-16T05:01:57;101392.28;;;8.73;88.59
3444;BME280;1736;52.068;6.968;2023-05-16T05:04:23;101398.81;;;8.94;87.83
3444;BME280;1736;52.068;6.968;2023-05-16T05:06:51;101397.59;;;8.86;87.15
3444;BME280;1736;52.068;6.968;2023-05-16T05:09:18;101403.50;;;9.03;85.94
3444;BME280;1736;52.068;6.968;2023-05-16T05:11:44;101404.19;;;9.19;85.37
3444;BME280;1736;52.068;6.968;2023-05-16T05:14:11;101406.09;;;9.17;85.21
3444;BME280;1736;52.068;6.968;2023-05-16T05:16:37;101399.44;;;9.37;84.66
3444;BME280;1736;52.068;6.968;2023-05-16T05:19:04;101409.72;;;9.41;83.37
3444;BME280;1736;52.068;6.968;2023-05-16T05:21:30;101406.53;;;9.36;83.46
3444;BME280;1736;52.068;6.968;2023-05-16T05:23:58;101403.28;;;9.58;82.87
3444;BME280;1736;52.068;6.968;2023-05-16T05:26:25;101412.50;;;9.77;82.18
3444;BME280;1736;52.068;6.968;2023-05-16T05:28:53;101408.69;;;9.81;81.54
3444;BME280;1736;52.068;6.968;2023-05-16T05:31:19;101414.41;;;9.88;81.43
3444;BME280;1736;52.068;6.968;2023-05-16T05:33:46;101419.03;;;10.11;80.74
3444;BME280;1736;52.068;6.968;2023-05-16T05:36:12;101415.91;;;10.04;79.74
3444;BME280;1736;52.068;6.968;2023-05-16T05:38:39;101423.69;;;10.07;79.36
3444;BME280;1736;52.068;6.968;2023-05-16T05:41:07;101419.94;;;10.22;79.03
3444;BME280;1736;52.068;6.968;2023-05-16T05:43:33;101425.38;;;10.08;78.66
3444;BME280;1736;52.068;6.968;2023-05-16T05:46:00;101427.50;;;10.28;77.93
3444;BME280;1736;52.068;6.968;2023-05-16T05:48:26;101428.09;;;10.44;77.54
3444;BME280;1736;52.068;6.968;2023-05-16T05:50:54;101431.41;;;10.72;77.15
3444;BME280;1736;52.068;6.968;2023-05-16T05:53:20;101437.69;;;10.71;75.78
3444;BME280;1736;52.068;6.968;2023-05-16T05:55:47;101433.00;;;10.74;75.73
3444;BME280;1736;52.068;6.968;2023-05-16T05:58:15;101438.06;;;10.77;75.90
3444;BME280;1736;52.068;6.968;2023-05-16T06:00:42;101444.19;;;10.90;74.39
3444;BME280;1736;52.068;6.968;2023-05-16T06:03:09;101437.94;;;11.15;74.15
3444;BME280;1736;52.068;6.968;2023-05-16T06:05:35;101442.56;;;11.24;72.82
3444;BME280;1736;52.068;6.968;2023-05-16T06:08:02;101428.47;;;11.34;72.15
3444;BME280;1736;52.068;6.968;2023-05-16T06:10:28;101438.69;;;11.17;71.50
3444;BME280;1736;52.068;6.968;2023-05-16T06:12:55;101442.38;;;11.61;70.64
3444;BME280;1736;52.068;6.968;2023-05-16T06:15:24;101445.44;;;11.79;69.75
3444;BME280;1736;52.068;6.968;2023-05-16T06:17:50;101446.16;;;11.81;69.15
3444;BME280;1736;52.068;6.968;2023-05-16T06:20:17;101449.75;;;11.69;68.85
3444;BME280;1736;52.068;6.968;2023-05-16T06:22:43;101446.00;;;11.60;68.75
3444;BME280;1736;52.068;6.968;2023-05-16T06:25:10;101450.34;;;11.61;67.59
3444;BME280;1736;52.068;6.968;2023-05-16T06:27:36;101458.00;;;11.66;67.23
3444;BME280;1736;52.068;6.968;2023-05-16T06:30:04;101467.44;;;11.70;66.93
3444;BME280;1736;52.068;6.968;2023-05-16T06:32:32;62237.41;;;-140.80;100.00
3444;BME280;1736;52.068;6.968;2023-05-16T06:34:58;62237.41;;;-140.80;100.00
3444;BME280;1736;52.068;6.968;2023-05-16T06:37:25;62237.41;;;-140.80;100.00
3444;BME280;1736;52.068;6.968;2023-05-16T06:39:51;62237.41;;;-140.80;100.00
3444;BME280;1736;52.068;6.968;2023-05-16T06:42:18;62237.41;;;-140.80;100.00
3444;BME280;1736;52.068;6.968;2023-05-16T06:44:45;62237.41;;;-140.80;100.00
3444;BME280;1736;52.068;6.968;2023-05-16T06:47:11;62237.41;;;-140.80;100.00
3444;BME280;1736;52.068;6.968;2023-05-16T06:49:39;62237.41;;;-140.80;100.00
3444;BME280;1736;52.068;6.968;2023-05-16T06:52:05;62237.41;;;-140.80;100.00
3444;BME280;1736;52.068;6.968;2023-05-16T06:54:32;62237.41;;;-140.80;100.00
3444;BME280;1736;52.068;6.968;2023-05-16T06:56:59;62237.41;;;-140.80;100.00
3444;BME280;1736;52.068;6.968;2023-05-16T06:59:26;62237.41;;;-140.80;100.00
3444;BME280;1736;52.068;6.968;2023-05-16T07:01:52;62237.41;;;-140.80;100.00
3444;BME280;1736;52.068;6.968;2023-05-16T07:04:19;62237.41;;;-140.80;100.00
3444;BME280;1736;52.068;6.968;2023-05-16T07:06:47;62237.41;;;-140.80;100.00
3444;BME280;1736;52.068;6.968;2023-05-16T07:09:13;62237.41;;;-140.80;100.00
3444;BME280;1736;52.068;6.968;2023-05-16T07:11:40;62237.41;;;-140.80;100.00
3444;BME280;1736;52.068;6.968;2023-05-16T07:14:06;62237.41;;;-140.80;100.00
3444;BME280;1736;52.068;6.968;2023-05-16T07:16:34;62237.41;;;-140.80;100.00
3444;BME280;1736;52.068;6.968;2023-05-16T07:19:00;62237.41;;;-140.80;100.00
3444;BME280;1736;52.068;6.968;2023-05-16T07:21:27;62237.41;;;-140.80;100.00
3444;BME280;1736;52.068;6.968;2023-05-16T07:23:55;62237.41;;;-140.80;100.00
3444;BME280;1736;52.068;6.968;2023-05-16T07:26:22;62237.41;;;-140.80;100.00
3444;BME280;1736;52.068;6.968;2023-05-16T07:28:49;62237.41;;;-140.80;100.00
3444;BME280;1736;52.068;6.968;2023-05-16T07:31:16;62237.41;;;-140.80;100.00
3444;BME280;1736;52.068;6.968;2023-05-16T07:33:43;62237.41;;;-140.80;100.00
3444;BME280;1736;52.068;6.968;2023-05-16T07:36:11;62237.41;;;-140.80;100.00
3444;BME280;1736;52.068;6.968;2023-05-16T07:38:37;62237.41;;;-140.80;100.00
3444;BME280;1736;52.068;6.968;2023-05-16T07:41:05;62237.41;;;-140.80;100.00
3444;BME280;1736;52.068;6.968;2023-05-16T07:43:38;62237.41;;;-140.80;100.00
3444;BME280;1736;52.068;6.968;2023-05-16T07:46:05;62237.41;;;-140.80;100.00
3444;BME280;1736;52.068;6.968;2023-05-16T07:48:31;62237.41;;;-140.80;100.00
3444;BME280;1736;52.068;6.968;2023-05-16T07:50:58;62237.41;;;-140.80;100.00
3444;BME280;1736;52.068;6.968;2023-05-16T07:53:25;62237.41;;;-140.80;100.00
3444;BME280;1736;52.068;6.968;2023-05-16T07:55:51;62237.41;;;-140.80;100.00
3444;BME280;1736;52.068;6.968;2023-05-16T07:58:19;62237.41;;;-140.80;100.00
3444;BME280;1736;52.068;6.968;2023-05-16T08:00:46;62237.41;;;-140.80;100.00
3444;BME280;1736;52.068;6.968;2023-05-16T08:03:13;62237.41;;;-140.80;100.00
3444;BME280;1736;52.068;6.968;2023-05-16T08:05:40;62237.41;;;-140.80;100.00
3444;BME280;1736;52.068;6.968;2023-05-16T08:08:06;62237.41;;;-140.80;100.00
3444;BME280;1736;52.068;6.968;2023-05-16T08:10:33;62237.41;;;-140.80;100.00
3444;BME280;1736;52.068;6.968;2023-05-16T08:12:59;62237.41;;;-140.80;100.00
3444;BME280;1736;52.068;6.968;2023-05-16T08:15:27;62237.41;;;-140.80;100.00
3444;BME280;1736;52.068;6.968;2023-05-16T08:17:56;62237.41;;;-140.80;100.00
3444;BME280;1736;52.068;6.968;2023-05-16T08:20:23;62237.41;;;-140.80;100.00
3444;BME280;1736;52.068;6.968;2023-05-16T08:22:49;62237.41;;;-140.80;100.00
3444;BME280;1736;52.068;6.968;2023-05-16T08:25:16;62237.41;;;-140.80;100.00
3444;BME280;1736;52.068;6.968;2023-05-16T08:27:43;62237.41;;;-140.80;100.00
3444;BME280;1736;52.068;6.968;2023-05-16T08:30:10;62237.41;;;-140.80;100.00
3444;BME280;1736;52.068;6.968;2023-05-16T08:32:44;62237.41;;;-140.80;100.00
3444;BME280;1736;52.068;6.968;2023-05-16T08:35:11;62237.41;;;-140.80;100.00
3444;BME280;1736;52.068;6.968;2023-05-16T08:37:38;62237.41;;;-140.80;100.00
3444;BME280;1736;52.068;6.968;2023-05-16T08:40:08;62237.41;;;-140.80;100.00
3444;BME280;1736;52.068;6.968;2023-05-16T08:42:35;62237.41;;;-140.80;100.00
3444;BME280;1736;52.068;6.968;2023-05-16T08:45:02;62237.41;;;-140.80;100.00
3444;BME280;1736;52.068;6.968;2023-05-16T08:47:30;62237.41;;;-140.80;100.00
3444;BME280;1736;52.068;6.968;2023-05-16T08:50:01;62237.41;;;-140.80;100.00
3444;BME280;1736;52.068;6.968;2023-05-16T08:52:29;62237.41;;;-140.80;100.00
3444;BME280;1736;52.068;6.968;2023-05-16T08:55:00;62237.41;;;-140.80;100.00
3444;BME280;1736;52.068;6.968;2023-05-16T08:57:30;62237.41;;;-140.80;100.00
3444;BME280;1736;52.068;6.968;2023-05-16T08:59:57;62237.41;;;-140.80;100.00
3444;BME280;1736;52.068;6.968;2023-05-16T09:02:24;62237.41;;;-140.80;100.00
3444;BME280;1736;52.068;6.968;2023-05-16T09:04:51;62237.41;;;-140.80;100.00
3444;BME280;1736;52.068;6.968;2023-05-16T09:07:19;62237.41;;;-140.80;100.00
3444;BME280;1736;52.068;6.968;2023-05-16T09:09:46;62237.41;;;-140.80;100.00
3444;BME280;1736;52.068;6.968;2023-05-16T09:12:12;62237.41;;;-140.80;100.00
3444;BME280;1736;52.068;6.968;2023-05-16T09:14:39;62237.41;;;-140.80;100.00
3444;BME280;1736;52.068;6.968;2023-05-16T09:17:07;62237.41;;;-140.80;100.00
3444;BME280;1736;52.068;6.968;2023-05-16T09:19:37;62237.41;;;-140.80;100.00
3444;BME280;1736;52.068;6.968;2023-05-16T09:22:05;62237.41;;;-140.80;100.00
3444;BME280;1736;52.068;6.968;2023-05-16T09:24:37;62237.41;;;-140.80;100.00
3444;BME280;1736;52.068;6.968;2023-05-16T09:27:07;62237.41;;;-140.80;100.00
3444;BME280;1736;52.068;6.968;2023-05-16T09:29:40;62237.41;;;-140.80;100.00
3444;BME280;1736;52.068;6.968;2023-05-16T09:32:12;62237.41;;;-140.80;100.00
3444;BME280;1736;52.068;6.968;2023-05-16T09:34:42;62237.41;;;-140.80;100.00
3444;BME280;1736;52.068;6.968;2023-05-16T09:37:09;62237.41;;;-140.80;100.00
3444;BME280;1736;52.068;6.968;2023-05-16T09:39:38;62237.41;;;-140.80;100.00
3444;BME280;1736;52.068;6.968;2023-05-16T09:42:05;62237.41;;;-140.80;100.00
3444;BME280;1736;52.068;6.968;2023-05-16T09:44:32;62237.41;;;-140.80;100.00
3444;BME280;1736;52.068;6.968;2023-05-16T09:46:59;62237.41;;;-140.80;100.00
3444;BME280;1736;52.068;6.968;2023-05-16T09:49:26;62237.41;;;-140.80;100.00
3444;BME280;1736;52.068;6.968;2023-05-16T09:51:52;62237.41;;;-140.80;100.00
3444;BME280;1736;52.068;6.968;2023-05-16T09:54:28;62237.41;;;-140.80;100.00
3444;BME280;1736;52.068;6.968;2023-05-16T09:56:57;62237.41;;;-140.80;100.00
3444;BME280;1736;52.068;6.968;2023-05-16T09:59:25;62237.41;;;-140.80;100.00
3444;BME280;1736;52.068;6.968;2023-05-16T10:01:52;62237.41;;;-140.80;100.00
3444;BME280;1736;52.068;6.968;2023-05-16T10:04:18;62237.41;;;-140.80;100.00
3444;BME280;1736;52.068;6.968;2023-05-16T10:06:45;62237.41;;;-140.80;100.00
3444;BME280;1736;52.068;6.968;2023-05-16T10:09:14;62237.41;;;-140.80;100.00
3444;BME280;1736;52.068;6.968;2023-05-16T10:11:41;62237.41;;;-140.80;100.00
3444;BME280;1736;52.068;6.968;2023-05-16T10:14:10;62237.41;;;-140.80;100.00
3444;BME280;1736;52.068;6.968;2023-05-16T10:16:41;62237.41;;;-140.80;100.00
3444;BME280;1736;52.068;6.968;2023-05-16T10:19:15;62237.41;;;-140.80;100.00
3444;BME280;1736;52.068;6.968;2023-05-16T10:21:45;62237.41;;;-140.80;100.00
3444;BME280;1736;52.068;6.968;2023-05-16T10:24:25;62237.41;;;-140.80;100.00
3444;BME280;1736;52.068;6.968;2023-05-16T10:26:52;62237.41;;;-140.80;100.00
3444;BME280;1736;52.068;6.968;2023-05-16T10:29:20;62237.41;;;-140.80;100.00
3444;BME280;1736;52.068;6.968;2023-05-16T10:31:48;62237.41;;;-140.80;100.00
3444;BME280;1736;52.068;6.968;2023-05-16T10:34:15;62237.41;;;-140.80;100.00
3444;BME280;1736;52.068;6.968;2023-05-16T10:36:42;62237.41;;;-140.80;100.00
3444;BME280;1736;52.068;6.968;2023-05-16T10:39:10;62237.41;;;-140.80;100.00
3444;BME280;1736;52.068;6.968;2023-05-16T10:41:37;62237.41;;;-140.80;100.00
3444;BME280;1736;52.068;6.968;2023-05-16T10:44:12;62237.41;;;-140.80;100.00
3444;BME280;1736;52.068;6.968;2023-05-16T10:46:41;62237.41;;;-140.80;100.00
3444;BME280;1736;52.068;6.968;2023-05-16T10:49:18;62237.41;;;-140.80;100.00
3444;BME280;1736;52.068;6.968;2023-05-16T10:51:45;62237.41;;;-140.80;100.00
3444;BME280;1736;52.068;6.968;2023-05-16T10:54:14;62237.41;;;-140.80;100.00
3444;BME280;1736;52.068;6.968;2023-05-16T10:56:43;62237.41;;;-140.80;100.00
3444;BME280;1736;52.068;6.968;2023-05-16T10:59:24;62237.41;;;-140.80;100.00
3444;BME280;1736;52.068;6.968;2023-05-16T11:01:54;62237.41;;;-140.80;100.00
3444;BME280;1736;52.068;6.968;2023-05-16T11:04:21;62237.41;;;-140.80;100.00
3444;BME280;1736;52.068;6.968;2023-05-16T11:06:52;62237.41;;;-140.80;100.00
3444;BME280;1736;52.068;6.968;2023-05-16T11:09:23;62237.41;;;-140.80;100.00
3444;BME280;1736;52.068;6.968;2023-05-16T11:11:55;62237.41;;;-140.80;100.00
3444;BME280;1736;52.068;6.968;2023-05-16T11:14:23;62237.41;;;-140.80;100.00
3444;BME280;1736;52.068;6.968;2023-05-16T11:16:59;62237.41;;;-140.80;100.00
3444;BME280;1736;52.068;6.968;2023-05-16T11:19:38;62237.41;;;-140.80;100.00
3444;BME280;1736;52.068;6.968;2023-05-16T11:22:09;62237.41;;;-140.80;100.00
3444;BME280;1736;52.068;6.968;2023-05-16T11:24:48;62237.41;;;-140.80;100.00
3444;BME280;1736;52.068;6.968;2023-05-16T11:27:20;62237.41;;;-140.80;100.00
3444;BME280;1736;52.068;6.968;2023-05-16T11:29:46;62237.41;;;-140.80;100.00
3444;BME280;1736;52.068;6.968;2023-05-16T11:32:13;62237.41;;;-140.80;100.00
3444;BME280;1736;52.068;6.968;2023-05-16T11:34:41;62237.41;;;-140.80;100.00
3444;BME280;1736;52.068;6.968;2023-05-16T11:37:09;62237.41;;;-140.80;100.00
3444;BME280;1736;52.068;6.968;2023-05-16T11:39:36;62237.41;;;-140.80;100.00
3444;BME280;1736;52.068;6.968;2023-05-16T11:42:03;62237.41;;;-140.80;100.00
3444;BME280;1736;52.068;6.968;2023-05-16T11:44:29;62237.41;;;-140.80;100.00
3444;BME280;1736;52.068;6.968;2023-05-16T11:46:56;62237.41;;;-140.80;100.00
3444;BME280;1736;52.068;6.968;2023-05-16T11:49:23;62237.41;;;-140.80;100.00
3444;BME280;1736;52.068;6.968;2023-05-16T11:51:53;62237.41;;;-140.80;100.00
3444;BME280;1736;52.068;6.968;2023-05-16T11:54:21;62237.41;;;-140.80;100.00
3444;BME280;1736;52.068;6.968;2023-05-16T11:56:48;101462.38;;;11.89;66.79
3444;BME280;1736;52.068;6.968;2023-05-16T11:59:16;101458.78;;;15.13;41.21
3444;BME280;1736;52.068;6.968;2023-05-16T12:01:42;101464.81;;;14.96;42.41
3444;BME280;1736;52.068;6.968;2023-05-16T12:04:09;101476.59;;;14.84;44.00
3444;BME280;1736;52.068;6.968;2023-05-16T12:06:36;101475.38;;;14.67;44.42
3444;BME280;1736;52.068;6.968;2023-05-16T12:09:05;101477.56;;;14.83;45.41
3444;BME280;1736;52.068;6.968;2023-05-16T12:11:36;101487.50;;;14.71;45.22
3444;BME280;1736;52.068;6.968;2023-05-16T12:14:03;101488.91;;;14.75;45.95
3444;BME280;1736;52.068;6.968;2023-05-16T12:16:31;101489.13;;;14.53;46.25
3444;BME280;1736;52.068;6.968;2023-05-16T12:18:58;101482.34;;;14.89;48.09
3444;BME280;1736;52.068;6.968;2023-05-16T12:21:26;101474.09;;;15.11;45.64
3444;BME280;1736;52.068;6.968;2023-05-16T12:23:54;101477.84;;;15.48;46.27
3444;BME280;1736;52.068;6.968;2023-05-16T12:26:28;101480.75;;;15.26;41.59
3444;BME280;1736;52.068;6.968;2023-05-16T12:28:56;101484.56;;;15.33;42.31
3444;BME280;1736;52.068;6.968;2023-05-16T12:31:25;101486.25;;;15.34;42.04
3444;BME280;1736;52.068;6.968;2023-05-16T12:33:51;101484.47;;;15.35;42.78
3444;BME280;1736;52.068;6.968;2023-05-16T12:36:18;101488.75;;;15.26;44.33
3444;BME280;1736;52.068;6.968;2023-05-16T12:38:45;101487.09;;;15.25;44.10
3444;BME280;1736;52.068;6.968;2023-05-16T12:41:17;101505.06;;;15.23;44.99
3444;BME280;1736;52.068;6.968;2023-05-16T12:43:45;101493.63;;;15.02;43.66
3444;BME280;1736;52.068;6.968;2023-05-16T12:46:12;101503.97;;;15.25;42.22
3444;BME280;1736;52.068;6.968;2023-05-16T12:48:39;101502.75;;;15.58;41.43
3444;BME280;1736;52.068;6.968;2023-05-16T12:51:11;101501.78;;;15.40;41.27
3444;BME280;1736;52.068;6.968;2023-05-16T12:53:42;101502.91;;;15.66;40.84
3444;BME280;1736;52.068;6.968;2023-05-16T12:56:10;101499.66;;;15.53;40.05
3444;BME280;1736;52.068;6.968;2023-05-16T12:58:37;101506.94;;;15.32;40.88
3444;BME280;1736;52.068;6.968;2023-05-16T13:01:05;101506.66;;;15.25;41.59
3444;BME280;1736;52.068;6.968;2023-05-16T13:03:39;101507.75;;;15.23;42.47
3444;BME280;1736;52.068;6.968;2023-05-16T13:06:06;101498.94;;;14.92;44.49
3444;BME280;1736;52.068;6.968;2023-05-16T13:08:33;101500.84;;;15.01;45.13
3444;BME280;1736;52.068;6.968;2023-05-16T13:10:59;101499.72;;;15.13;42.43